createdAt,value
2022-12-08T00:01:36.519Z,10.73
2022-12-08T00:04:08.934Z,14.17
2022-12-08T00:06:56.215Z,18.40
2022-12-08T00:09:26.286Z,17.43
2022-12-08T00:11:57.198Z,18.60
2022-12-08T00:14:29.334Z,18.90
2022-12-08T00:16:58.502Z,17.40
2022-12-08T00:19:27.113Z,17.00
2022-12-08T00:21:55.882Z,19.00
2022-12-08T00:24:26.335Z,15.30
2022-12-08T00:26:54.601Z,13.40
2022-12-08T00:29:22.808Z,14.30
2022-12-08T00:31:52.458Z,14.40
2022-12-08T00:34:20.976Z,11.03
2022-12-08T00:36:50.678Z,13.60
2022-12-08T00:39:19.609Z,16.60
2022-12-08T00:42:04.930Z,17.37
2022-12-08T00:44:33.080Z,17.97
2022-12-08T00:47:02.759Z,13.67
2022-12-08T00:49:30.934Z,16.47
2022-12-08T00:51:59.124Z,15.40
2022-12-08T00:54:27.637Z,17.87
2022-12-08T00:56:55.902Z,16.03
2022-12-08T00:59:24.108Z,15.17
2022-12-08T01:01:52.374Z,17.07
2022-12-08T01:04:24.619Z,18.03
2022-12-08T01:06:52.720Z,16.47
2022-12-08T01:09:22.040Z,16.50
2022-12-08T01:11:50.192Z,13.27
2022-12-08T01:14:18.426Z,14.70
2022-12-08T01:16:46.587Z,12.33
2022-12-08T01:19:16.098Z,12.80
2022-12-08T01:21:47.128Z,13.83
2022-12-08T01:24:16.981Z,17.97
2022-12-08T01:26:45.557Z,17.17
2022-12-08T01:29:14.273Z,19.63
2022-12-08T01:31:42.573Z,15.00
2022-12-08T01:34:11.914Z,14.10
2022-12-08T01:36:40.664Z,18.00
2022-12-08T01:39:15.525Z,12.60
2022-12-08T01:41:44.997Z,11.30
2022-12-08T01:45:02.848Z,12.17
2022-12-08T01:47:37.015Z,14.10
2022-12-08T01:50:06.149Z,11.73
2022-12-08T01:52:37.185Z,9.67
2022-12-08T01:55:09.788Z,12.57
2022-12-08T01:57:42.637Z,10.00
2022-12-08T02:00:12.890Z,10.63
2022-12-08T02:02:49.461Z,10.27
2022-12-08T02:05:18.210Z,12.13
2022-12-08T02:07:47.603Z,9.90
2022-12-08T02:10:20.255Z,12.80
2022-12-08T02:12:48.703Z,15.13
2022-12-08T02:15:17.104Z,12.37
2022-12-08T02:17:59.621Z,12.83
2022-12-08T02:20:38.682Z,14.77
2022-12-08T02:23:11.407Z,11.10
2022-12-08T02:25:53.309Z,13.13
2022-12-08T02:28:39.715Z,10.83
2022-12-08T02:31:14.281Z,10.73
2022-12-08T02:34:04.332Z,15.30
2022-12-08T02:36:37.870Z,9.77
2022-12-08T02:39:12.175Z,11.90
2022-12-08T02:41:44.722Z,15.27
2022-12-08T02:44:17.558Z,11.23
2022-12-08T02:46:50.901Z,13.73
2022-12-08T02:49:20.352Z,11.87
2022-12-08T02:51:48.483Z,13.57
2022-12-08T02:54:16.728Z,11.13
2022-12-08T02:57:01.954Z,9.60
2022-12-08T02:59:41.353Z,14.37
2022-12-08T03:02:24.920Z,11.70
2022-12-08T03:05:01.060Z,10.70
2022-12-08T03:07:34.613Z,10.87
2022-12-08T03:10:08.100Z,13.00
2022-12-08T03:12:39.474Z,9.83
2022-12-08T03:15:10.040Z,11.77
2022-12-08T03:17:39.189Z,8.97
2022-12-08T03:20:12.029Z,16.07
2022-12-08T03:22:42.092Z,12.60
2022-12-08T03:25:12.116Z,13.60
2022-12-08T03:27:40.503Z,13.90
2022-12-08T03:30:10.896Z,15.37
2022-12-08T03:32:41.474Z,12.83
2022-12-08T03:35:14.427Z,17.83
2022-12-08T03:37:42.678Z,13.63
2022-12-08T03:40:13.859Z,11.97
2022-12-08T03:42:41.978Z,13.57
2022-12-08T03:45:10.941Z,11.30
2022-12-08T03:47:39.337Z,11.17
2022-12-08T03:50:08.628Z,14.20
2022-12-08T03:52:38.182Z,14.53
2022-12-08T03:55:07.227Z,9.83
2022-12-08T03:57:35.339Z,10.60
2022-12-08T04:00:03.949Z,14.63
2022-12-08T04:02:32.419Z,13.50
2022-12-08T04:05:00.670Z,12.30
2022-12-08T04:07:28.995Z,11.00
2022-12-08T04:09:58.487Z,11.40
2022-12-08T04:12:26.878Z,13.23
2022-12-08T04:14:54.968Z,13.37
2022-12-08T04:17:23.131Z,11.00
2022-12-08T04:19:51.347Z,12.03
2022-12-08T04:22:19.354Z,8.43
2022-12-08T04:24:47.461Z,10.63
2022-12-08T04:27:16.942Z,12.13
2022-12-08T04:29:45.040Z,9.33
2022-12-08T04:32:13.805Z,10.30
2022-12-08T04:34:41.967Z,14.57
2022-12-08T04:37:10.074Z,12.00
2022-12-08T04:39:38.331Z,16.27
2022-12-08T04:42:07.003Z,16.83
2022-12-08T04:44:36.581Z,10.77
2022-12-08T04:47:05.015Z,14.37
2022-12-08T04:49:33.198Z,11.53
2022-12-08T04:52:01.458Z,9.57
2022-12-08T04:54:29.640Z,10.00
2022-12-08T04:56:57.798Z,11.80
2022-12-08T04:59:25.929Z,12.30
2022-12-08T05:01:55.559Z,7.17
2022-12-08T05:04:23.796Z,9.83
2022-12-08T05:06:51.885Z,9.80
2022-12-08T05:09:20.115Z,10.70
2022-12-08T05:11:49.231Z,11.00
2022-12-08T05:14:19.454Z,9.00
2022-12-08T05:16:48.083Z,11.67
2022-12-08T05:19:18.660Z,8.73
2022-12-08T05:21:46.932Z,10.67
2022-12-08T05:24:15.047Z,9.83
2022-12-08T05:26:43.229Z,14.70
2022-12-08T05:29:11.301Z,15.67
2022-12-08T05:31:39.483Z,11.17
2022-12-08T05:34:07.879Z,13.87
2022-12-08T05:36:37.301Z,15.10
2022-12-08T05:39:05.750Z,14.10
2022-12-08T05:41:33.889Z,15.37
2022-12-08T05:44:02.035Z,13.83
2022-12-08T05:46:30.205Z,11.07
2022-12-08T05:48:58.316Z,10.73
2022-12-08T05:51:26.480Z,10.67
2022-12-08T05:53:56.941Z,10.50
2022-12-08T05:56:25.306Z,11.63
2022-12-08T05:58:53.438Z,8.10
2022-12-08T06:01:23.787Z,10.70
2022-12-08T06:03:52.795Z,13.13
2022-12-08T06:06:21.161Z,9.57
2022-12-08T06:08:49.426Z,8.57
2022-12-08T06:11:23.555Z,11.67
2022-12-08T06:13:51.683Z,13.50
2022-12-08T06:16:20.374Z,12.33
2022-12-08T06:18:48.505Z,15.60
2022-12-08T06:21:17.423Z,12.83
2022-12-08T06:23:48.403Z,15.60
2022-12-08T06:26:17.010Z,15.83
2022-12-08T06:28:46.515Z,14.80
2022-12-08T06:31:16.935Z,14.00
2022-12-08T06:33:45.218Z,11.60
2022-12-08T06:36:15.348Z,13.80
2022-12-08T06:38:44.123Z,13.93
2022-12-08T06:41:13.195Z,14.10
2022-12-08T06:43:41.539Z,10.20
2022-12-08T06:46:12.879Z,12.90
2022-12-08T06:48:41.595Z,14.10
2022-12-08T06:51:12.093Z,13.87
2022-12-08T06:53:40.596Z,12.10
2022-12-08T06:56:09.686Z,13.70
2022-12-08T06:58:38.173Z,15.43
2022-12-08T07:01:07.710Z,19.20
2022-12-08T07:03:38.644Z,11.43
2022-12-08T07:06:07.559Z,10.30
2022-12-08T07:08:35.909Z,14.03
2022-12-08T07:11:10.412Z,12.83
2022-12-08T07:13:38.845Z,16.03
2022-12-08T07:16:08.805Z,13.10
2022-12-08T07:18:39.085Z,12.90
2022-12-08T07:21:09.001Z,13.77
2022-12-08T07:23:37.127Z,13.80
2022-12-08T07:26:07.864Z,17.30
2022-12-08T07:28:37.372Z,13.03
2022-12-08T07:31:06.275Z,18.87
2022-12-08T07:33:36.112Z,15.77
2022-12-08T07:36:07.183Z,19.10
2022-12-08T07:38:35.435Z,19.60
2022-12-08T07:41:03.948Z,19.50
2022-12-08T07:43:32.032Z,13.90
2022-12-08T07:46:00.229Z,17.50
2022-12-08T07:48:28.466Z,22.40
2022-12-08T07:51:02.106Z,24.87
2022-12-08T07:53:31.920Z,16.03
2022-12-08T07:56:00.364Z,16.03
2022-12-08T07:58:28.800Z,19.50
2022-12-08T08:00:59.533Z,14.17
2022-12-08T08:03:28.243Z,14.80
2022-12-08T08:05:56.409Z,15.73
2022-12-08T08:08:24.544Z,19.13
2022-12-08T08:10:54.196Z,16.10
2022-12-08T08:13:22.394Z,16.30
2022-12-08T08:15:50.694Z,16.70
2022-12-08T08:18:18.931Z,19.43
2022-12-08T08:20:46.975Z,25.60
2022-12-08T08:23:15.285Z,21.03
2022-12-08T08:25:43.447Z,25.83
2022-12-08T08:28:12.974Z,23.87
2022-12-08T08:30:41.666Z,19.17
2022-12-08T08:33:09.988Z,19.70
2022-12-08T08:35:38.367Z,16.47
2022-12-08T08:38:06.888Z,17.07
2022-12-08T08:40:35.422Z,18.63
2022-12-08T08:43:03.785Z,21.23
2022-12-08T08:45:33.625Z,15.00
2022-12-08T08:48:02.066Z,11.83
2022-12-08T08:50:37.208Z,16.00
2022-12-08T08:53:07.156Z,12.87
2022-12-08T08:55:36.363Z,12.43
2022-12-08T08:58:05.884Z,14.20
2022-12-08T09:00:38.919Z,13.57
2022-12-08T09:03:07.558Z,11.23
2022-12-08T09:05:36.288Z,12.53
2022-12-08T09:08:04.896Z,14.10
2022-12-08T09:10:33.066Z,12.30
2022-12-08T09:13:01.404Z,12.47
2022-12-08T09:15:29.679Z,9.27
2022-12-08T09:17:59.593Z,9.63
2022-12-08T09:20:27.728Z,10.03
2022-12-08T09:23:14.501Z,10.50
2022-12-08T09:25:45.537Z,12.80
2022-12-08T09:28:13.726Z,12.17
2022-12-08T09:30:42.118Z,6.97
2022-12-08T09:33:11.580Z,9.00
2022-12-08T09:35:39.906Z,7.33
2022-12-08T09:38:08.164Z,7.10
2022-12-08T09:40:43.586Z,7.33
2022-12-08T09:43:17.890Z,6.37
2022-12-08T09:45:46.667Z,4.80
2022-12-08T09:48:18.637Z,5.13
2022-12-08T09:50:49.936Z,6.77
2022-12-08T09:53:21.573Z,7.30
2022-12-08T09:55:52.615Z,7.80
2022-12-08T09:58:25.631Z,6.03
2022-12-08T10:00:54.067Z,6.93
2022-12-08T10:03:26.416Z,6.80
2022-12-08T10:06:01.210Z,7.37
2022-12-08T10:08:35.612Z,7.43
2022-12-08T10:11:14.983Z,8.07
2022-12-08T10:13:51.582Z,5.57
2022-12-08T10:16:29.561Z,5.80
2022-12-08T10:19:04.280Z,4.90
2022-12-08T10:21:35.202Z,5.93
2022-12-08T10:24:07.139Z,6.23
2022-12-08T10:26:35.435Z,8.07
2022-12-08T10:29:03.935Z,8.40
2022-12-08T10:31:33.302Z,9.70
2022-12-08T10:34:16.438Z,8.13
2022-12-08T10:36:49.611Z,5.67
2022-12-08T10:39:35.321Z,4.73
2022-12-08T10:42:10.589Z,3.80
2022-12-08T10:44:56.646Z,4.47
2022-12-08T10:47:26.931Z,3.33
2022-12-08T10:50:13.721Z,5.60
2022-12-08T10:52:42.616Z,5.50
2022-12-08T10:55:17.843Z,4.10
2022-12-08T10:57:46.412Z,2.97
2022-12-08T11:00:15.839Z,2.80
2022-12-08T11:02:59.892Z,3.33
2022-12-08T11:05:33.413Z,4.27
2022-12-08T11:08:03.656Z,4.40
2022-12-08T11:10:36.240Z,3.80
2022-12-08T11:13:07.484Z,6.47
2022-12-08T11:15:40.201Z,19.67
2022-12-08T11:18:19.941Z,8.73
2022-12-08T11:20:49.651Z,6.30
2022-12-08T11:23:24.989Z,4.63
2022-12-08T11:25:54.987Z,7.10
2022-12-08T11:28:25.180Z,3.23
2022-12-08T11:30:58.592Z,4.17
2022-12-08T11:33:28.186Z,4.47
2022-12-08T11:36:01.422Z,4.73
2022-12-08T11:38:30.727Z,10.40
2022-12-08T11:41:01.718Z,5.23
2022-12-08T11:43:36.792Z,8.40
2022-12-08T11:46:10.434Z,6.50
2022-12-08T11:48:44.411Z,4.20
2022-12-08T11:51:16.858Z,3.83
2022-12-08T11:53:52.197Z,3.70
2022-12-08T11:56:22.109Z,3.93
2022-12-08T11:58:54.613Z,3.17
2022-12-08T12:01:24.578Z,4.60
2022-12-08T12:04:00.979Z,3.13
2022-12-08T12:06:56.544Z,3.53
2022-12-08T12:09:34.215Z,3.10
2022-12-08T12:12:17.081Z,3.07
2022-12-08T12:15:14.832Z,4.00
2022-12-08T12:17:46.734Z,3.03
2022-12-08T12:20:19.862Z,4.20
2022-12-08T12:22:53.602Z,9.90
2022-12-08T12:25:23.711Z,5.70
2022-12-08T12:27:57.093Z,7.33
2022-12-08T12:30:27.079Z,11.57
2022-12-08T12:32:57.684Z,7.30
2022-12-08T12:35:33.961Z,7.50
2022-12-08T12:38:28.456Z,8.50
2022-12-08T12:41:02.180Z,5.00
2022-12-08T12:43:33.044Z,6.10
2022-12-08T12:46:37.531Z,4.13
2022-12-08T12:49:54.528Z,3.90
2022-12-08T12:52:42.490Z,5.40
2022-12-08T12:55:52.422Z,4.97
2022-12-08T12:58:40.281Z,3.80
2022-12-08T13:01:45.813Z,10.37
2022-12-08T13:04:14.690Z,22.60
2022-12-08T13:06:46.293Z,17.17
2022-12-08T13:09:36.701Z,12.33
2022-12-08T13:12:11.454Z,12.77
2022-12-08T13:14:47.606Z,11.73
2022-12-08T13:17:20.166Z,11.60
2022-12-08T13:19:52.031Z,8.93
2022-12-08T13:22:51.299Z,9.50
2022-12-08T13:25:47.975Z,11.57
2022-12-08T13:28:28.796Z,12.83
2022-12-08T13:31:00.364Z,10.10
2022-12-08T13:33:31.615Z,10.10
2022-12-08T13:36:20.506Z,9.77
2022-12-08T13:38:49.508Z,13.80
2022-12-08T13:41:20.489Z,12.73
2022-12-08T13:44:20.592Z,10.27
2022-12-08T13:51:10.491Z,27.80
2022-12-08T13:53:56.131Z,16.30
2022-12-08T13:58:19.503Z,14.30
2022-12-08T14:00:57.281Z,21.80
2022-12-08T14:03:30.596Z,11.67
2022-12-08T14:06:15.564Z,14.90
2022-12-08T14:09:08.427Z,19.40
2022-12-08T14:11:36.611Z,13.47
2022-12-08T14:14:08.259Z,11.70
2022-12-08T14:16:39.145Z,9.90
2022-12-08T14:19:18.392Z,9.83
2022-12-08T14:21:55.163Z,12.03
2022-12-08T14:24:24.399Z,14.27
2022-12-08T14:26:54.462Z,18.07
2022-12-08T14:29:42.051Z,12.90
2022-12-08T14:32:30.471Z,10.20
2022-12-08T14:35:02.817Z,10.90
2022-12-08T14:37:33.305Z,8.40
2022-12-08T14:40:04.431Z,11.40
2022-12-08T14:42:33.124Z,9.90
2022-12-08T14:45:05.565Z,10.47
2022-12-08T14:47:35.286Z,11.23
2022-12-08T14:50:27.452Z,20.93
2022-12-08T14:52:55.881Z,20.00
2022-12-08T14:55:24.306Z,20.40
2022-12-08T14:57:52.828Z,30.13
2022-12-08T15:00:23.217Z,20.37
2022-12-08T15:02:52.087Z,25.93
2022-12-08T15:05:23.476Z,22.63
2022-12-08T15:07:53.442Z,21.10
2022-12-08T15:10:25.381Z,16.60
2022-12-08T15:13:07.530Z,20.97
2022-12-08T15:15:51.862Z,9.17
2022-12-08T15:18:23.197Z,13.10
2022-12-08T15:20:54.997Z,15.00
2022-12-08T15:23:27.268Z,7.27
2022-12-08T15:25:55.923Z,8.93
2022-12-08T15:28:29.782Z,10.43
2022-12-08T15:30:59.082Z,7.57
2022-12-08T15:33:27.724Z,9.57
2022-12-08T15:35:57.253Z,10.60
2022-12-08T15:38:27.185Z,10.07
2022-12-08T15:40:55.427Z,12.87
2022-12-08T15:43:24.359Z,15.03
2022-12-08T15:45:59.527Z,12.53
2022-12-08T15:48:29.414Z,11.37
2022-12-08T15:50:59.312Z,14.73
2022-12-08T15:53:27.837Z,9.90
2022-12-08T15:58:53.667Z,13.70
2022-12-08T16:01:22.762Z,11.33
2022-12-08T16:07:19.845Z,16.10
2022-12-08T16:09:34.551Z,12.50
2022-12-08T16:12:20.342Z,16.13
2022-12-08T16:17:37.492Z,14.07
2022-12-08T16:20:07.749Z,22.17
2022-12-08T16:22:56.455Z,19.00
2022-12-08T16:25:36.379Z,19.07
2022-12-08T16:28:52.354Z,16.97
2022-12-08T16:31:03.115Z,14.40
2022-12-08T16:33:31.154Z,13.67
2022-12-08T16:35:59.592Z,18.33
2022-12-08T16:38:29.039Z,17.37
2022-12-08T16:41:14.572Z,19.20
2022-12-08T16:43:42.838Z,15.00
2022-12-08T16:46:19.147Z,17.07
2022-12-08T16:48:47.577Z,21.03
2022-12-08T16:51:26.510Z,17.90
2022-12-08T16:53:57.076Z,17.00
2022-12-08T16:56:32.140Z,20.00
2022-12-08T16:59:01.483Z,16.20
2022-12-08T17:01:30.117Z,19.93
2022-12-08T17:04:29.866Z,19.13
2022-12-08T17:06:46.721Z,14.67
2022-12-08T17:09:16.360Z,17.27
2022-12-08T17:11:44.517Z,14.70
2022-12-08T17:14:12.995Z,16.17
2022-12-08T17:16:41.564Z,20.50
2022-12-08T17:19:10.144Z,17.90
2022-12-08T17:21:38.506Z,21.03
2022-12-08T17:24:07.095Z,17.13
2022-12-08T17:26:36.975Z,19.40
2022-12-08T17:29:05.995Z,21.33
2022-12-08T17:31:34.440Z,21.80
2022-12-08T17:34:03.043Z,27.03
2022-12-08T17:36:31.374Z,24.87
2022-12-08T17:39:01.327Z,19.77
2022-12-08T17:41:30.140Z,21.07
2022-12-08T17:43:59.594Z,21.50
2022-12-08T17:46:28.105Z,18.13
2022-12-08T17:48:56.304Z,16.47
2022-12-08T17:51:24.906Z,23.63
2022-12-08T17:53:53.501Z,23.03
2022-12-08T17:56:23.004Z,42.37
2022-12-08T17:58:54.657Z,77.83
2022-12-08T18:01:25.609Z,90.87
2022-12-08T18:03:59.418Z,65.97
2022-12-08T18:06:31.225Z,52.60
2022-12-08T18:09:00.715Z,43.00
2022-12-08T18:11:29.946Z,33.97
2022-12-08T18:13:58.707Z,23.47
2022-12-08T18:16:29.083Z,16.70
2022-12-08T18:18:57.755Z,16.87
2022-12-08T18:21:26.296Z,14.47
2022-12-08T18:23:54.899Z,11.90
2022-12-08T18:26:25.110Z,10.50
2022-12-08T18:28:54.175Z,10.03
2022-12-08T18:31:23.667Z,10.40
2022-12-08T18:33:54.081Z,9.30
2022-12-08T18:36:24.479Z,9.50
2022-12-08T18:38:53.982Z,8.90
2022-12-08T18:41:24.694Z,8.90
2022-12-08T18:43:53.240Z,8.40
2022-12-08T18:46:22.060Z,7.17
2022-12-08T18:48:52.926Z,8.20
2022-12-08T18:51:23.380Z,9.23
2022-12-08T18:53:51.852Z,8.37
2022-12-08T18:56:23.484Z,8.70
2022-12-08T18:58:51.572Z,11.07
2022-12-08T19:01:19.938Z,9.30
2022-12-08T19:04:12.087Z,12.60
2022-12-08T19:06:40.291Z,10.13
2022-12-08T19:09:08.871Z,10.67
2022-12-08T19:11:37.572Z,11.90
2022-12-08T19:14:06.205Z,11.73
2022-12-08T19:16:34.667Z,14.20
2022-12-08T19:19:03.308Z,10.83
2022-12-08T19:21:32.065Z,9.10
2022-12-08T19:24:01.764Z,11.77
2022-12-08T19:26:30.033Z,11.70
2022-12-08T19:28:59.256Z,11.50
2022-12-08T19:31:27.594Z,12.27
2022-12-08T19:33:56.425Z,15.60
2022-12-08T19:36:26.111Z,12.83
2022-12-08T19:39:12.481Z,11.10
2022-12-08T19:41:59.603Z,13.27
2022-12-08T19:44:49.341Z,10.80
2022-12-08T19:47:18.775Z,11.10
2022-12-08T19:49:47.548Z,10.90
2022-12-08T19:52:17.636Z,12.73
2022-12-08T19:54:46.281Z,12.07
2022-12-08T19:57:16.389Z,21.00
2022-12-08T19:59:47.043Z,11.20
2022-12-08T20:02:18.523Z,11.57
2022-12-08T20:04:47.432Z,14.47
2022-12-08T20:07:15.793Z,18.87
2022-12-08T20:09:44.233Z,18.20
2022-12-08T20:12:12.495Z,13.97
2022-12-08T20:14:45.835Z,12.30
2022-12-08T20:17:17.585Z,9.70
2022-12-08T20:19:45.810Z,10.70
2022-12-08T20:22:14.072Z,13.10
2022-12-08T20:24:48.944Z,12.07
2022-12-08T20:27:20.582Z,8.90
2022-12-08T20:29:50.342Z,13.13
2022-12-08T20:32:18.953Z,10.30
2022-12-08T20:34:47.216Z,12.40
2022-12-08T20:37:15.871Z,7.43
2022-12-08T20:39:44.074Z,11.17
2022-12-08T20:42:14.660Z,12.73
2022-12-08T20:44:46.021Z,8.43
2022-12-08T20:47:16.303Z,10.27
2022-12-08T20:49:44.745Z,9.93
2022-12-08T20:52:12.933Z,13.30
2022-12-08T20:54:41.384Z,12.33
2022-12-08T20:57:09.882Z,9.33
2022-12-08T20:59:38.114Z,11.47
2022-12-08T21:02:06.716Z,9.60
2022-12-08T21:04:36.389Z,10.73
2022-12-08T21:07:04.844Z,14.60
2022-12-08T21:09:33.006Z,12.20
2022-12-08T21:12:01.402Z,7.43
2022-12-08T21:14:29.481Z,9.60
2022-12-08T21:16:58.092Z,11.50
2022-12-08T21:19:26.874Z,11.67
2022-12-08T21:21:56.628Z,15.20
2022-12-08T21:24:28.986Z,13.60
2022-12-08T21:27:02.877Z,11.63
2022-12-08T21:29:31.280Z,12.50
2022-12-08T21:32:00.342Z,11.37
2022-12-08T21:34:31.921Z,18.33
2022-12-08T21:37:04.343Z,11.63
2022-12-08T21:39:32.744Z,15.53
2022-12-08T21:42:22.501Z,17.77
2022-12-08T21:44:51.197Z,12.27
2022-12-08T21:47:19.571Z,17.00
2022-12-08T21:49:48.333Z,17.70
2022-12-08T21:52:17.910Z,14.13
2022-12-08T21:54:46.131Z,14.80
2022-12-08T21:57:14.688Z,15.43
2022-12-08T21:59:43.203Z,13.40
2022-12-08T22:02:17.936Z,15.73
2022-12-08T22:04:53.417Z,13.03
2022-12-08T22:07:28.405Z,13.80
2022-12-08T22:10:09.679Z,14.57
2022-12-08T22:12:43.983Z,20.53
2022-12-08T22:15:16.978Z,17.13
2022-12-08T22:17:57.171Z,17.30
2022-12-08T22:20:30.456Z,18.07
2022-12-08T22:23:00.276Z,17.47
2022-12-08T22:25:29.558Z,18.37
2022-12-08T22:27:58.215Z,15.00
2022-12-08T22:30:26.581Z,17.40
2022-12-08T22:32:55.291Z,18.63
2022-12-08T22:35:24.058Z,16.00
2022-12-08T22:37:52.265Z,23.63
2022-12-08T22:40:21.903Z,18.53
2022-12-08T22:42:50.657Z,19.97
2022-12-08T22:45:18.949Z,20.67
2022-12-08T22:47:47.175Z,15.70
2022-12-08T22:50:15.688Z,18.00
2022-12-08T22:52:43.784Z,19.13
2022-12-08T22:55:11.879Z,17.60
2022-12-08T22:57:41.435Z,14.93
2022-12-08T23:00:12.271Z,18.27
2022-12-08T23:02:40.831Z,22.47
2022-12-08T23:05:09.859Z,18.00
2022-12-08T23:07:38.511Z,15.07
2022-12-08T23:10:08.356Z,21.20
2022-12-08T23:12:37.393Z,16.70
2022-12-08T23:15:08.748Z,18.23
2022-12-08T23:17:37.309Z,17.23
2022-12-08T23:20:07.370Z,20.83
2022-12-08T23:22:35.834Z,19.83
2022-12-08T23:25:04.689Z,18.20
2022-12-08T23:27:33.431Z,15.40
2022-12-08T23:30:01.740Z,17.63
2022-12-08T23:32:31.338Z,21.87
2022-12-08T23:34:59.516Z,22.10
2022-12-08T23:37:27.882Z,19.37
2022-12-08T23:39:56.269Z,20.53
2022-12-08T23:42:24.686Z,17.13
2022-12-08T23:44:52.940Z,19.27
2022-12-08T23:47:22.570Z,19.23
2022-12-08T23:49:52.465Z,15.40
2022-12-08T23:52:20.637Z,19.60
2022-12-08T23:54:51.168Z,17.63
2022-12-08T23:57:19.688Z,17.90
2022-12-08T23:59:48.136Z,17.37
